Time;durP1;ratioP1;P1;durP2;ratioP2;P2;SDS_P1;SDS_P2;PMS_P1;PMS_P2;Temp;Humidity;BMP_temperature;BMP_pressure;BME280_temperature;BME280_humidity;BME280_pressure;Samples;Min_cycle;Max_cycle;Signal;HPM_P1;HPM_P2
2023/06/01 00:00:29;;;;;;;11.27;4.40;;;;;;;16.91;54.47;96605.88;5023333;28;20446;-68
2023/06/01 00:02:55;;;;;;;12.15;4.50;;;;;;;16.79;54.98;96612.66;5023853;28;20049;-67
2023/06/01 00:05:20;;;;;;;10.20;5.00;;;;;;;16.84;54.69;96610.69;5019365;28;20103;-67
2023/06/01 00:07:46;;;;;;;11.32;4.57;;;;;;;16.80;54.98;96614.25;5023163;28;20099;-68
2023/06/01 00:10:12;;;;;;;8.90;4.60;;;;;;;16.86;54.98;96611.06;5017756;28;20041;-67
2023/06/01 00:12:37;;;;;;;10.63;5.45;;;;;;;16.83;55.07;96615.44;5023661;28;20041;-67
2023/06/01 00:15:03;;;;;;;8.75;5.20;;;;;;;16.87;54.87;96618.16;5021236;28;20426;-66
2023/06/01 00:17:30;;;;;;;9.95;4.75;;;;;;;16.83;55.19;96612.66;5036977;28;20116;-68
2023/06/01 00:19:56;;;;;;;8.32;4.65;;;;;;;16.79;55.26;96614.66;5023196;28;20041;-68
2023/06/01 00:22:23;;;;;;;14.65;5.18;;;;;;;16.69;55.74;96608.03;5018443;28;20136;-67
2023/06/01 00:24:50;;;;;;;12.55;5.43;;;;;;;16.71;55.69;96607.59;5023090;28;20046;-68
2023/06/01 00:27:15;;;;;;;12.77;5.10;;;;;;;16.68;55.87;96608.44;5018137;28;20049;-68
2023/06/01 00:29:41;;;;;;;12.82;5.00;;;;;;;16.62;56.05;96603.34;5023273;28;20049;-67
2023/06/01 00:32:06;;;;;;;9.43;5.05;;;;;;;16.51;56.57;96608.19;5018108;28;20049;-67
2023/06/01 00:34:32;;;;;;;10.35;4.90;;;;;;;16.43;57.13;96612.97;5022716;28;20082;-67
2023/06/01 00:36:57;;;;;;;10.68;5.55;;;;;;;16.35;57.20;96610.69;5022442;28;20391;-68
2023/06/01 00:39:22;;;;;;;10.98;4.97;;;;;;;16.42;56.74;96611.44;5017855;28;20053;-68
2023/06/01 00:41:48;;;;;;;10.10;4.65;;;;;;;16.41;57.13;96618.13;5028384;28;20360;-68
2023/06/01 00:44:13;;;;;;;9.40;5.22;;;;;;;16.34;57.36;96611.88;5019243;28;20042;-68
2023/06/01 00:46:39;;;;;;;11.57;4.43;;;;;;;16.29;57.82;96621.38;5022876;28;20118;-68
2023/06/01 00:49:05;;;;;;;12.82;5.00;;;;;;;16.26;58.08;96619.44;5017604;28;20033;-66
2023/06/01 00:51:32;;;;;;;8.07;4.43;;;;;;;16.27;58.01;96614.69;5022137;28;20038;-66
2023/06/01 00:53:59;;;;;;;12.02;5.78;;;;;;;16.21;58.20;96620.66;5021936;28;20038;-66
2023/06/01 00:56:26;;;;;;;13.30;4.63;;;;;;;16.18;58.63;96620.69;5018597;28;20049;-67
2023/06/01 00:58:52;;;;;;;9.38;5.15;;;;;;;16.08;58.82;96613.25;5024691;28;20133;-67
2023/06/01 01:01:18;;;;;;;9.55;5.80;;;;;;;16.02;59.26;96623.94;5018520;28;20546;-68
2023/06/01 01:03:49;;;;;;;12.75;6.18;;;;;;;16.00;59.32;96624.34;5022553;28;20045;-67
2023/06/01 01:06:26;;;;;;;10.13;4.93;;;;;;;15.91;59.90;96615.72;5017604;28;20124;-68
2023/06/01 01:09:08;;;;;;;11.77;5.03;;;;;;;15.90;60.17;96627.16;5022046;28;20152;-67
2023/06/01 01:11:37;;;;;;;12.52;5.05;;;;;;;15.87;60.24;96617.72;5021543;28;20046;-67
2023/06/01 01:14:05;;;;;;;8.82;5.68;;;;;;;15.75;60.76;96618.97;5019713;28;20497;-64
2023/06/01 01:16:49;;;;;;;10.10;5.07;;;;;;;15.80;60.62;96617.75;5021855;28;20049;-67
2023/06/01 01:19:32;;;;;;;8.93;4.93;;;;;;;15.76;61.46;96622.53;5016757;28;20038;-67
2023/06/01 01:22:45;;;;;;;9.13;5.13;;;;;;;15.63;61.80;96620.19;5018970;28;20073;-67
2023/06/01 01:25:20;;;;;;;11.48;5.38;;;;;;;15.52;62.60;96619.47;4974876;28;20037;-68
2023/06/01 01:28:10;;;;;;;14.43;5.53;;;;;;;15.45;63.02;96625.00;5021774;28;20047;-70
2023/06/01 01:30:40;;;;;;;;;;;;;;;15.34;64.02;96611.25;5022980;28;20042;-70
2023/06/01 01:33:06;;;;;;;14.65;5.35;;;;;;;15.30;64.24;96610.47;5017578;28;19913;-69
2023/06/01 01:35:33;;;;;;;12.48;5.38;;;;;;;15.24;64.81;96623.09;5023957;28;20398;-70
2023/06/01 01:37:58;;;;;;;14.27;5.20;;;;;;;15.23;65.20;96625.09;5023665;28;20041;-70
2023/06/01 01:40:23;;;;;;;14.70;6.05;;;;;;;15.20;65.14;96631.41;5016620;28;20085;-69
2023/06/01 01:42:51;;;;;;;14.38;5.05;;;;;;;15.20;65.30;96614.84;5021029;28;20042;-70
2023/06/01 01:45:16;;;;;;;12.48;5.22;;;;;;;15.11;65.98;96622.75;5017486;28;20091;-70
2023/06/01 01:47:50;;;;;;;9.75;5.15;;;;;;;15.09;65.99;96623.16;5019734;28;20441;-69
2023/06/01 01:50:21;;;;;;;14.15;5.85;;;;;;;15.03;66.69;96621.19;5017236;28;20561;-70
2023/06/01 01:52:48;;;;;;;12.20;5.70;;;;;;;15.04;66.56;96617.25;5036668;28;20037;-69
2023/06/01 01:55:15;;;;;;;11.57;5.43;;;;;;;15.03;66.76;96613.69;5017033;28;20072;-69
2023/06/01 01:57:41;;;;;;;10.80;6.18;;;;;;;14.98;67.57;96622.41;5021805;28;20091;-70
2023/06/01 02:00:07;;;;;;;11.68;5.72;;;;;;;14.99;67.11;96612.16;5017094;28;20494;-70
2023/06/01 02:02:33;;;;;;;18.73;5.85;;;;;;;14.93;67.28;96617.28;5021519;28;20038;-69
2023/06/01 02:04:58;;;;;;;11.45;4.80;;;;;;;14.93;67.60;96611.75;5021088;28;20049;-70
2023/06/01 02:07:24;;;;;;;9.98;5.38;;;;;;;14.93;67.75;96611.75;5017144;28;20633;-69
2023/06/01 02:09:49;;;;;;;9.85;4.95;;;;;;;14.95;67.27;96614.13;5020647;28;20517;-70
2023/06/01 02:12:15;;;;;;;15.70;6.03;;;;;;;14.94;67.56;96612.53;5015740;28;20477;-68
2023/06/01 02:14:40;;;;;;;10.90;5.63;;;;;;;14.90;67.67;96618.84;5020328;28;20049;-67
2023/06/01 02:17:07;;;;;;;10.40;6.07;;;;;;;14.85;67.86;96612.94;5017456;28;20041;-66
2023/06/01 02:19:33;;;;;;;9.15;5.22;;;;;;;14.89;67.89;96617.28;5028592;28;20490;-67
2023/06/01 02:21:58;;;;;;;17.30;5.43;;;;;;;14.91;67.49;96619.66;5024617;28;20048;-68
2023/06/01 02:24:24;;;;;;;12.68;5.10;;;;;;;14.97;67.33;96612.53;5015314;28;20274;-68
2023/06/01 02:26:52;;;;;;;11.05;5.70;;;;;;;14.88;67.98;96617.69;5022497;28;20045;-68
2023/06/01 02:29:21;;;;;;;10.90;5.57;;;;;;;14.85;68.55;96616.47;5015673;28;20485;-68
2023/06/01 02:31:53;;;;;;;12.40;5.05;;;;;;;14.80;69.07;96619.66;5020146;28;20050;-68
2023/06/01 02:34:19;;;;;;;8.13;4.97;;;;;;;14.85;69.38;96621.22;5015931;28;20418;-68
2023/06/01 02:36:45;;;;;;;12.38;5.82;;;;;;;14.81;70.14;96612.19;5019664;28;20145;-68
2023/06/01 02:39:10;;;;;;;12.02;5.15;;;;;;;14.77;69.52;96612.19;5015073;28;20120;-68
2023/06/01 02:41:56;;;;;;;9.65;4.85;;;;;;;14.78;69.30;96610.97;5015582;28;20045;-69
2023/06/01 02:44:41;;;;;;;12.38;6.03;;;;;;;14.79;69.78;96606.28;5020286;28;20042;-69
2023/06/01 02:47:12;;;;;;;10.45;5.75;;;;;;;14.85;69.77;96612.94;5016102;28;20103;-68
2023/06/01 02:49:46;;;;;;;8.05;5.00;;;;;;;14.80;69.99;96614.16;5031542;28;20049;-68
2023/06/01 02:52:31;;;;;;;15.88;6.03;;;;;;;14.68;70.58;96617.31;5016288;28;20438;-68
2023/06/01 02:54:58;;;;;;;10.45;5.28;;;;;;;14.62;70.94;96614.19;5018392;28;20049;-68
2023/06/01 02:57:27;;;;;;;11.68;6.32;;;;;;;14.61;70.92;96622.84;5013581;28;20055;-68
2023/06/01 02:59:52;;;;;;;15.35;5.75;;;;;;;14.45;70.63;96618.47;5018726;28;20049;-68
2023/06/01 03:02:17;;;;;;;11.65;5.43;;;;;;;14.42;71.51;96622.03;5014978;28;20053;-67
2023/06/01 03:04:43;;;;;;;11.30;5.57;;;;;;;14.39;72.36;96622.81;5021796;28;20044;-67
2023/06/01 03:07:08;;;;;;;10.20;5.55;;;;;;;14.27;75.39;96628.72;5015049;28;20134;-68
2023/06/01 03:09:34;;;;;;;15.57;6.32;;;;;;;14.05;76.10;96634.19;5020613;28;20099;-68
2023/06/01 03:12:01;;;;;;;11.32;6.25;;;;;;;13.84;78.78;96629.41;5022841;28;20049;-67
2023/06/01 03:14:26;;;;;;;9.80;5.75;;;;;;;13.75;78.61;96631.75;5016990;28;20061;-68
2023/06/01 03:16:51;;;;;;;9.52;6.05;;;;;;;13.70;79.76;96634.88;5021327;28;20115;-68
2023/06/01 03:19:17;;;;;;;12.45;6.10;;;;;;;13.66;80.35;96634.09;5019355;28;20064;-67
2023/06/01 03:21:42;;;;;;;11.10;5.82;;;;;;;13.62;80.10;96634.09;5023668;28;20497;-67
2023/06/01 03:24:08;;;;;;;9.63;5.50;;;;;;;13.68;81.42;96629.75;5019276;28;20045;-67
2023/06/01 03:26:33;;;;;;;10.13;5.35;;;;;;;13.62;81.73;96625.84;5023986;28;20045;-67
2023/06/01 03:28:59;;;;;;;11.25;6.30;;;;;;;13.54;83.20;96624.22;5024061;28;20041;-67
2023/06/01 03:31:25;;;;;;;12.80;5.82;;;;;;;13.48;83.64;96634.03;5018063;28;20053;-67
2023/06/01 03:33:51;;;;;;;13.52;5.97;;;;;;;13.43;84.25;96635.19;5023417;28;20041;-67
2023/06/01 03:36:17;;;;;;;10.70;6.30;;;;;;;13.54;84.40;96643.47;5019204;28;20088;-67
2023/06/01 03:38:42;;;;;;;11.00;6.15;;;;;;;13.57;83.94;96639.97;5024312;28;20033;-67
2023/06/01 03:41:08;;;;;;;13.65;6.25;;;;;;;13.64;84.47;96645.50;5021385;28;20129;-65
2023/06/01 03:43:33;;;;;;;13.10;6.68;;;;;;;13.47;84.67;96647.00;5023275;28;20167;-68
2023/06/01 03:45:59;;;;;;;9.70;6.15;;;;;;;13.52;85.53;96643.09;5024563;28;20038;-68
2023/06/01 03:48:25;;;;;;;10.93;6.00;;;;;;;13.37;85.71;96640.28;5019170;28;20087;-68
2023/06/01 03:50:51;;;;;;;12.60;7.03;;;;;;;13.43;85.97;96640.69;5023561;28;20045;-68
2023/06/01 03:53:16;;;;;;;13.60;6.40;;;;;;;13.55;85.28;96647.81;5018260;28;20041;-68
2023/06/01 03:55:41;;;;;;;14.50;6.45;;;;;;;13.48;85.75;96640.31;5023360;28;20042;-68
2023/06/01 03:58:07;;;;;;;13.10;6.47;;;;;;;13.38;88.33;96647.38;5014934;28;20064;-68
2023/06/01 04:00:32;;;;;;;11.85;6.38;;;;;;;13.19;90.09;96647.63;5023786;28;20053;-68
2023/06/01 04:02:59;;;;;;;13.05;6.55;;;;;;;13.07;91.68;96645.19;5023640;28;20129;-68
2023/06/01 04:05:26;;;;;;;13.13;6.85;;;;;;;13.07;91.94;96643.25;5018581;28;20486;-68
2023/06/01 04:07:53;;;;;;;11.50;5.93;;;;;;;13.28;92.26;96653.56;5023068;28;20053;-68
2023/06/01 04:10:19;;;;;;;9.80;6.03;;;;;;;13.49;91.36;96657.63;5015933;28;20423;-68
2023/06/01 04:12:48;;;;;;;11.70;6.57;;;;;;;13.64;90.45;96662.00;5021608;28;20136;-67
2023/06/01 04:15:15;;;;;;;12.23;5.78;;;;;;;13.75;89.44;96659.28;5019368;28;20048;-68
2023/06/01 04:17:42;;;;;;;10.57;6.25;;;;;;;13.88;89.79;96667.97;5022479;28;20065;-68
2023/06/01 04:20:15;;;;;;;13.60;6.30;;;;;;;14.09;88.17;96673.53;5018710;28;20128;-68
2023/06/01 04:22:42;;;;;;;16.92;6.30;;;;;;;14.22;87.74;96665.69;5025362;28;20046;-68
2023/06/01 04:25:11;;;;;;;11.95;6.20;;;;;;;14.45;86.08;96670.06;5026107;28;20072;-68
2023/06/01 04:27:37;;;;;;;12.85;6.18;;;;;;;14.60;85.36;96665.34;5023041;28;20551;-68
2023/06/01 04:30:07;;;;;;;11.25;6.05;;;;;;;14.84;84.50;96675.59;5018689;28;20045;-67
2023/06/01 04:32:39;;;;;;;11.43;6.38;;;;;;;15.04;83.18;96677.94;5022316;28;20045;-67
2023/06/01 04:35:06;;;;;;;11.57;6.45;;;;;;;15.19;82.32;96673.94;5018140;28;20052;-66
2023/06/01 04:37:34;;;;;;;10.90;6.40;;;;;;;15.30;82.01;96676.69;5022703;28;20109;-67
2023/06/01 04:40:01;;;;;;;12.27;6.05;;;;;;;15.42;80.89;96675.47;5022336;28;20050;-67
2023/06/01 04:42:27;;;;;;;12.48;5.75;;;;;;;15.57;80.70;96678.97;5017604;28;20048;-67
2023/06/01 04:44:53;;;;;;;13.10;7.25;;;;;;;15.72;78.85;96677.75;5022950;28;20033;-67
2023/06/01 04:47:20;;;;;;;14.05;6.82;;;;;;;15.84;78.07;96677.28;5018121;28;20408;-67
2023/06/01 04:49:46;;;;;;;15.70;6.68;;;;;;;16.17;76.97;96672.41;5023529;28;20034;-67
2023/06/01 04:52:12;;;;;;;11.07;5.65;;;;;;;17.14;72.13;96668.09;5015544;28;20518;-68
2023/06/01 04:54:37;;;;;;;13.35;6.47;;;;;;;18.14;65.43;96672.44;5038295;28;20099;-68
2023/06/01 04:57:06;;;;;;;14.75;6.20;;;;;;;19.51;59.74;96675.78;5019834;28;20038;-67
2023/06/01 04:59:41;;;;;;;14.63;6.22;;;;;;;20.47;55.77;96680.53;5021877;28;20044;-68
2023/06/01 05:02:07;;;;;;;9.82;5.55;;;;;;;21.70;51.26;96681.06;5017659;28;20034;-68
2023/06/01 05:04:32;;;;;;;10.48;5.72;;;;;;;22.73;46.08;96676.41;5022937;28;20124;-68
2023/06/01 05:06:58;;;;;;;10.50;5.28;;;;;;;23.66;43.81;96675.28;5023621;28;20045;-68
2023/06/01 05:09:25;;;;;;;10.05;4.85;;;;;;;24.20;42.32;96678.88;5017545;28;20081;-68
2023/06/01 05:11:50;;;;;;;11.68;4.78;;;;;;;24.54;40.88;96685.59;5022287;28;20490;-66
2023/06/01 05:14:16;;;;;;;9.77;4.90;;;;;;;25.28;40.23;96688.63;5016926;28;20044;-67
2023/06/01 05:16:41;;;;;;;8.82;5.05;;;;;;;26.10;37.88;96689.88;5022405;28;20124;-67
2023/06/01 05:19:07;;;;;;;8.15;4.22;;;;;;;27.01;36.65;96690.81;5017453;28;20486;-66
2023/06/01 05:21:32;;;;;;;11.05;4.68;;;;;;;27.18;35.54;96687.56;5025772;28;20643;-67
2023/06/01 05:23:58;;;;;;;8.43;4.47;;;;;;;26.65;37.02;96697.34;5026516;28;20046;-66
2023/06/01 05:26:23;;;;;;;10.35;4.68;;;;;;;27.49;35.06;96694.88;5020910;28;20548;-67
2023/06/01 05:28:48;;;;;;;10.20;4.65;;;;;;;27.73;34.69;96694.84;5027253;28;20042;-69
2023/06/01 05:31:14;;;;;;;11.63;5.00;;;;;;;27.01;35.24;96693.59;5033584;28;20164;-66
2023/06/01 05:33:39;;;;;;;7.90;4.53;;;;;;;27.08;35.53;96695.28;5021330;28;20049;-68
2023/06/01 05:36:06;;;;;;;10.73;5.30;;;;;;;26.39;36.49;96694.94;5017371;28;20531;-68
2023/06/01 05:38:31;;;;;;;12.15;5.45;;;;;;;27.93;33.89;96699.84;5017467;28;20100;-69
2023/06/01 05:40:57;;;;;;;12.02;4.75;;;;;;;28.83;32.37;96706.22;5021959;28;20084;-68
2023/06/01 05:43:22;;;;;;;8.52;4.97;;;;;;;28.22;32.47;96701.91;5018627;28;20053;-68
2023/06/01 05:45:48;;;;;;;12.50;4.88;;;;;;;28.63;32.03;96713.38;5023202;28;20029;-67
2023/06/01 05:48:14;;;;;;;10.35;4.40;;;;;;;29.11;30.88;96713.06;5016398;28;20100;-67
2023/06/01 05:50:41;;;;;;;8.48;4.13;;;;;;;29.08;31.42;96718.91;5022310;28;20132;-67
2023/06/01 05:53:07;;;;;;;11.57;4.78;;;;;;;28.46;32.21;96715.88;5016510;28;20104;-67
2023/06/01 05:55:32;;;;;;;14.90;4.38;;;;;;;28.15;33.25;96707.94;5021759;28;20045;-67
2023/06/01 05:57:58;;;;;;;9.73;4.45;;;;;;;29.44;31.01;96717.66;5019852;28;20394;-67
2023/06/01 06:00:23;;;;;;;13.45;4.70;;;;;;;30.31;29.61;96711.16;5016566;28;20428;-67
2023/06/01 06:02:49;;;;;;;8.88;4.72;;;;;;;30.40;29.53;96707.44;5023657;28;20037;-66
2023/06/01 06:05:14;;;;;;;11.00;4.57;;;;;;;30.92;28.56;96708.59;5020201;28;20071;-68
2023/06/01 06:07:40;;;;;;;11.48;4.95;;;;;;;27.83;31.97;96718.81;5022620;28;20134;-67
2023/06/01 06:10:06;;;;;;;12.43;4.93;;;;;;;28.56;31.80;96714.56;5016587;28;20507;-67
2023/06/01 06:12:31;;;;;;;11.48;5.00;;;;;;;28.95;31.85;96717.19;5021356;28;20044;-68
2023/06/01 06:14:57;;;;;;;12.45;5.13;;;;;;;27.51;33.80;96721.25;5036324;28;20128;-68
2023/06/01 06:17:22;;;;;;;8.25;4.72;;;;;;;28.93;31.54;96719.72;5016858;28;20267;-68
2023/06/01 06:19:49;;;;;;;9.50;4.90;;;;;;;28.32;31.83;96711.03;5021390;28;20045;-67
2023/06/01 06:22:15;;;;;;;9.95;4.70;;;;;;;28.37;32.94;96725.22;5015544;28;20071;-69
2023/06/01 06:24:41;;;;;;;11.40;4.90;;;;;;;29.24;30.75;96720.44;5022867;28;20483;-68
2023/06/01 06:27:08;;;;;;;11.30;5.32;;;;;;;27.83;32.36;96719.59;5017856;28;20041;-69
2023/06/01 06:29:34;;;;;;;11.77;5.47;;;;;;;27.97;31.84;96711.72;5023847;28;20045;-68
2023/06/01 06:31:59;;;;;;;7.32;4.18;;;;;;;28.25;32.82;96715.00;5022887;28;20372;-69
2023/06/01 06:34:25;;;;;;;13.13;6.35;;;;;;;28.86;31.60;96710.91;5015897;28;20644;-69
2023/06/01 06:36:52;;;;;;;12.65;5.28;;;;;;;30.19;29.42;96715.16;5019387;28;20378;-68
2023/06/01 06:39:18;;;;;;;11.18;5.13;;;;;;;30.96;28.40;96717.66;5014774;28;20040;-68
2023/06/01 06:41:44;;;;;;;8.20;4.72;;;;;;;31.53;27.47;96719.53;5021116;28;20037;-67
2023/06/01 06:44:09;;;;;;;10.50;4.78;;;;;;;31.76;27.13;96722.44;5017338;28;20048;-67
2023/06/01 06:46:35;;;;;;;8.65;4.45;;;;;;;31.63;27.48;96720.84;5021169;28;20141;-68
2023/06/01 06:49:00;;;;;;;10.90;5.05;;;;;;;31.97;26.55;96720.97;5021295;28;20068;-68
2023/06/01 06:51:26;;;;;;;8.82;4.75;;;;;;;32.09;26.56;96723.84;5018896;28;20042;-68
2023/06/01 06:53:51;;;;;;;12.75;5.32;;;;;;;31.27;27.26;96727.34;5024534;28;20037;-67
2023/06/01 06:56:17;;;;;;;13.57;5.57;;;;;;;28.00;32.00;96721.97;5020133;28;20117;-67
2023/06/01 06:58:44;;;;;;;11.50;5.97;;;;;;;25.36;36.10;96721.50;5024163;28;20042;-67
2023/06/01 07:01:10;;;;;;;11.60;5.32;;;;;;;27.18;33.95;96719.25;5018770;28;20045;-66
2023/06/01 07:03:35;;;;;;;9.75;5.25;;;;;;;23.73;39.15;96728.13;5024800;28;20103;-68
2023/06/01 07:06:01;;;;;;;9.80;4.78;;;;;;;26.50;35.40;96714.09;5024361;28;20037;-68
2023/06/01 07:08:26;;;;;;;10.38;5.47;;;;;;;24.55;37.64;96721.53;5020147;28;20564;-68
2023/06/01 07:10:55;;;;;;;12.20;5.20;;;;;;;26.29;34.88;96721.50;5024323;28;20037;-68
2023/06/01 07:13:21;;;;;;;11.60;5.60;;;;;;;25.49;35.91;96726.19;5019704;28;20053;-68
2023/06/01 07:15:46;;;;;;;10.90;5.65;;;;;;;26.31;35.10;96727.41;5024767;28;20042;-68
2023/06/01 07:18:11;;;;;;;10.18;5.43;;;;;;;22.81;40.91;96722.38;5020024;28;20044;-68
2023/06/01 07:20:37;;;;;;;12.75;5.97;;;;;;;25.25;39.85;96720.41;5023963;28;20053;-68
2023/06/01 07:23:02;;;;;;;15.55;5.85;;;;;;;26.86;37.82;96715.22;5023140;28;20609;-67
2023/06/01 07:25:28;;;;;;;10.70;4.97;;;;;;;26.56;37.71;96715.03;5022792;28;20041;-68
2023/06/01 07:27:56;;;;;;;9.05;5.07;;;;;;;27.86;35.61;96715.06;5023033;28;20048;-68
2023/06/01 07:30:21;;;;;;;11.77;5.40;;;;;;;28.01;35.43;96715.09;5019251;28;20113;-68
2023/06/01 07:32:47;;;;;;;12.32;6.03;;;;;;;27.93;35.64;96719.53;5023658;28;20045;-67
2023/06/01 07:35:12;;;;;;;13.13;5.95;;;;;;;27.70;35.44;96715.50;5020058;28;20077;-68
2023/06/01 07:37:38;;;;;;;15.30;5.97;;;;;;;27.71;35.26;96712.19;5023052;28;20046;-68
2023/06/01 07:40:06;;;;;;;14.35;6.20;;;;;;;28.05;34.79;96712.09;5021714;28;20132;-67
2023/06/01 07:42:32;;;;;;;14.10;6.53;;;;;;;27.97;34.90;96709.66;5025345;28;20173;-68
2023/06/01 07:44:57;;;;;;;19.08;6.10;;;;;;;26.87;36.90;96705.56;5023208;28;20056;-67
2023/06/01 07:47:25;;;;;;;13.05;6.65;;;;;;;27.49;35.84;96711.75;5020705;28;20483;-68
2023/06/01 07:49:51;;;;;;;17.73;6.10;;;;;;;27.73;35.02;96717.34;5038436;28;20080;-67
2023/06/01 07:52:17;;;;;;;15.52;6.63;;;;;;;27.82;34.90;96714.44;5018130;28;20038;-69
2023/06/01 07:54:43;;;;;;;15.63;6.22;;;;;;;28.33;34.06;96719.00;5022582;28;20068;-69
2023/06/01 07:57:08;;;;;;;12.85;6.03;;;;;;;28.17;34.62;96713.84;5017851;28;20042;-68
2023/06/01 07:59:34;;;;;;;11.00;5.68;;;;;;;27.95;35.19;96703.75;5022386;28;20049;-69
2023/06/01 08:02:00;;;;;;;16.73;6.28;;;;;;;27.92;35.52;96706.75;5022418;28;20037;-69
2023/06/01 08:04:27;;;;;;;15.13;6.03;;;;;;;27.60;35.61;96709.97;5016907;28;20041;-67
2023/06/01 08:06:53;;;;;;;14.10;6.20;;;;;;;27.60;35.67;96709.16;5024569;28;20045;-70
2023/06/01 08:09:23;;;;;;;12.73;5.88;;;;;;;26.72;37.94;96701.88;5021791;28;20048;-69
2023/06/01 08:11:50;;;;;;;13.48;5.88;;;;;;;26.36;37.97;96700.72;5023940;28;20215;-69
2023/06/01 08:14:16;;;;;;;16.27;7.07;;;;;;;25.80;39.48;96700.78;5018260;28;20475;-69
2023/06/01 08:16:42;;;;;;;12.68;6.47;;;;;;;25.90;39.44;96704.38;5022462;28;20052;-68
2023/06/01 08:19:08;;;;;;;11.77;6.53;;;;;;;26.37;38.95;96705.88;5018248;28;20069;-68
2023/06/01 08:21:34;;;;;;;13.68;5.88;;;;;;;26.51;37.93;96698.81;5021695;28;20494;-68
2023/06/01 08:23:59;;;;;;;12.43;6.50;;;;;;;26.52;38.06;96698.34;5022016;28;20184;-68
2023/06/01 08:26:25;;;;;;;16.92;6.40;;;;;;;25.59;39.59;96707.34;5018698;28;20125;-69
2023/06/01 08:28:53;;;;;;;18.40;6.40;;;;;;;26.01;39.37;96698.31;5022580;28;20079;-69
2023/06/01 08:31:20;;;;;;;15.70;7.22;;;;;;;25.38;40.35;96704.22;5015964;28;20776;-68
2023/06/01 08:33:46;;;;;;;13.25;6.25;;;;;;;26.53;38.48;96696.31;5022030;28;20045;-68
2023/06/01 08:36:11;;;;;;;18.08;6.22;;;;;;;26.25;39.16;96704.81;5017640;28;20037;-68
2023/06/01 08:38:37;;;;;;;15.80;6.32;;;;;;;26.29;39.17;96697.00;5022814;28;20037;-68
2023/06/01 08:41:20;;;;;;;16.52;6.78;;;;;;;25.89;40.20;96694.38;5019509;28;20164;-68
2023/06/01 08:43:54;;;;;;;22.33;7.20;;;;;;;24.22;42.65;96705.19;5023253;28;20045;-68
2023/06/01 08:46:21;;;;;;;15.15;6.80;;;;;;;24.59;42.68;96705.38;5017649;28;20037;-68
2023/06/01 08:48:50;;;;;;;13.10;6.38;;;;;;;25.06;42.76;96702.72;5022371;28;20103;-68
2023/06/01 08:51:16;;;;;;;12.75;6.88;;;;;;;24.69;42.92;96706.22;5018167;28;20038;-68
2023/06/01 08:53:44;;;;;;;12.55;6.50;;;;;;;24.18;43.60;96701.75;5022094;28;20195;-68
2023/06/01 08:56:10;;;;;;;12.93;7.07;;;;;;;24.14;44.09;96697.50;5017374;28;20238;-68
2023/06/01 08:58:36;;;;;;;13.63;7.32;;;;;;;24.31;43.37;96692.47;5022139;28;20131;-68
2023/06/01 09:01:02;;;;;;;14.18;7.80;;;;;;;24.46;43.66;96689.91;5021698;28;20387;-68
2023/06/01 09:03:27;;;;;;;11.45;6.57;;;;;;;24.50;43.51;96696.91;5019161;28;20048;-68
2023/06/01 09:05:53;;;;;;;17.52;6.88;;;;;;;24.41;44.04;96688.47;5023175;28;20506;-68
2023/06/01 09:08:18;;;;;;;15.55;7.35;;;;;;;24.39;44.37;96688.94;5017429;28;20064;-68
2023/06/01 09:10:44;;;;;;;13.52;6.55;;;;;;;24.70;43.80;96692.97;5023767;28;20041;-68
2023/06/01 09:13:10;;;;;;;12.38;6.80;;;;;;;25.31;42.14;96685.66;5019270;28;20364;-68
2023/06/01 09:15:50;;;;;;;15.63;7.43;;;;;;;25.14;42.63;96692.81;5022777;28;20045;-68
2023/06/01 09:18:15;;;;;;;22.48;7.93;;;;;;;25.47;40.93;96695.03;5018169;28;20037;-68
2023/06/01 09:20:41;;;;;;;14.98;7.00;;;;;;;25.38;42.03;96685.38;5021944;28;20090;-69
2023/06/01 09:23:06;;;;;;;12.25;7.18;;;;;;;24.50;42.99;96685.72;5015106;28;20078;-68
2023/06/01 09:25:33;;;;;;;11.60;7.18;;;;;;;24.86;42.47;96677.94;5021603;28;20797;-67
2023/06/01 09:28:01;;;;;;;14.20;7.05;;;;;;;25.12;41.83;96676.44;5021484;28;20155;-67
2023/06/01 09:30:47;;;;;;;17.63;6.95;;;;;;;25.08;43.69;96673.00;5018600;28;20044;-67
2023/06/01 09:33:14;;;;;;;15.65;6.97;;;;;;;25.01;43.05;96673.28;5016072;28;20498;-69
2023/06/01 09:35:48;;;;;;;17.15;8.00;;;;;;;25.15;42.73;96681.09;5022436;28;20041;-69
2023/06/01 09:38:22;;;;;;;18.13;8.77;;;;;;;24.53;43.45;96681.25;5017217;28;20080;-67
2023/06/01 09:41:02;;;;;;;19.80;7.80;;;;;;;24.65;43.77;96682.38;5021304;28;20045;-68
2023/06/01 09:43:29;;;;;;;21.08;7.47;;;;;;;25.03;43.60;96672.84;5019784;28;20065;-68
2023/06/01 09:46:05;;;;;;;14.10;6.63;;;;;;;25.16;42.84;96677.06;5032367;28;20084;-68
2023/06/01 09:48:31;;;;;;;18.70;7.80;;;;;;;25.62;42.52;96667.16;5019580;28;20049;-68
2023/06/01 09:50:56;;;;;;;13.15;6.63;;;;;;;25.70;41.71;96677.59;5021004;28;20071;-68
2023/06/01 09:53:22;;;;;;;13.98;7.60;;;;;;;25.78;41.80;96671.66;5016338;28;20053;-68
2023/06/01 09:55:58;;;;;;;17.15;6.78;;;;;;;24.97;43.55;96667.88;5022030;28;20037;-68
2023/06/01 09:58:23;;;;;;;18.33;7.82;;;;;;;24.67;44.30;96669.50;5016814;28;20054;-68
2023/06/01 10:00:50;;;;;;;13.48;6.75;;;;;;;24.46;44.57;96664.72;5021869;28;20052;-67
2023/06/01 10:03:18;;;;;;;14.15;6.70;;;;;;;24.94;44.16;96668.78;5014129;28;20117;-68
2023/06/01 10:05:45;;;;;;;14.25;6.18;;;;;;;24.89;44.83;96663.78;5021923;28;20071;-68
2023/06/01 10:08:16;;;;;;;20.27;7.78;;;;;;;24.68;43.79;96659.06;5016451;28;20538;-68
2023/06/01 10:10:45;;;;;;;14.95;7.25;;;;;;;24.44;45.50;96656.78;5021483;28;20100;-67
2023/06/01 10:13:11;;;;;;;13.83;5.93;;;;;;;25.08;44.50;96652.59;5016966;28;20518;-68
2023/06/01 10:15:37;;;;;;;10.93;6.75;;;;;;;25.94;42.22;96648.91;5021050;28;20128;-69
2023/06/01 10:18:04;;;;;;;22.80;7.20;;;;;;;26.31;41.40;96643.19;5019063;28;20141;-67
2023/06/01 10:20:37;;;;;;;15.18;6.57;;;;;;;25.86;42.55;96637.19;5020399;28;20523;-68
2023/06/01 10:23:04;;;;;;;16.25;7.28;;;;;;;25.80;42.43;96638.31;5018443;28;20505;-67
2023/06/01 10:25:43;;;;;;;15.98;6.72;;;;;;;26.01;42.17;96640.16;5022061;28;20049;-68
2023/06/01 10:28:11;;;;;;;14.05;7.55;;;;;;;25.74;42.05;96632.53;5022482;28;20458;-68
2023/06/01 10:30:36;;;;;;;14.02;7.25;;;;;;;25.28;42.89;96633.38;5025611;28;20037;-68
2023/06/01 10:33:03;;;;;;;12.25;7.38;;;;;;;25.28;43.62;96630.56;5024740;28;20041;-68
2023/06/01 10:35:31;;;;;;;16.98;7.13;;;;;;;25.48;43.88;96632.91;5023478;28;20044;-68
2023/06/01 10:38:06;;;;;;;17.35;7.70;;;;;;;25.72;42.70;96621.78;5027374;28;20055;-68
2023/06/01 10:40:46;;;;;;;16.13;7.10;;;;;;;25.62;42.60;96625.09;5024078;28;20053;-68
2023/06/01 10:43:36;;;;;;;15.73;6.88;;;;;;;25.63;43.59;96621.03;5019864;28;20046;-68
2023/06/01 10:46:02;;;;;;;10.93;6.45;;;;;;;25.78;43.06;96616.31;5023286;28;20034;-68
2023/06/01 10:48:54;;;;;;;12.80;6.63;;;;;;;25.87;42.26;96619.09;5023039;28;20037;-67
2023/06/01 10:51:21;;;;;;;8.57;6.20;;;;;;;26.01;42.57;96620.50;5020919;28;20455;-69
2023/06/01 10:53:46;;;;;;;15.25;7.35;;;;;;;25.90;42.81;96615.38;5025848;28;20052;-67
2023/06/01 10:56:19;;;;;;;13.25;6.88;;;;;;;25.75;43.48;96625.69;5021145;28;20048;-68
2023/06/01 10:58:47;;;;;;;12.50;7.30;;;;;;;25.85;42.81;96618.03;5025164;28;20041;-68
2023/06/01 11:01:20;;;;;;;14.70;7.28;;;;;;;25.30;44.24;96616.06;5019649;28;20045;-68
2023/06/01 11:03:46;;;;;;;10.55;6.47;;;;;;;25.50;44.26;96613.56;5024473;28;20056;-68
2023/06/01 11:06:27;;;;;;;12.70;6.68;;;;;;;25.47;45.03;96605.31;5020219;28;20129;-68
2023/06/01 11:08:59;;;;;;;13.32;7.60;;;;;;;25.14;44.84;96603.91;5024910;28;20426;-68
2023/06/01 11:11:48;;;;;;;17.77;7.80;;;;;;;25.21;44.91;96616.03;5019680;28;20049;-68
2023/06/01 11:14:14;;;;;;;14.98;7.95;;;;;;;25.16;45.56;96604.19;5020461;28;20140;-67
2023/06/01 11:16:40;;;;;;;16.40;7.97;;;;;;;24.92;45.90;96597.63;5025598;28;20124;-68
2023/06/01 11:19:06;;;;;;;14.20;6.80;;;;;;;25.61;45.69;96599.06;5019909;28;20041;-68
2023/06/01 11:21:43;;;;;;;13.13;7.43;;;;;;;25.37;44.45;96598.91;5035472;28;20613;-68
2023/06/01 11:24:09;;;;;;;13.13;7.35;;;;;;;25.25;45.53;96595.06;5021390;28;20039;-69
2023/06/01 11:26:38;;;;;;;13.25;7.50;;;;;;;25.16;45.30;96593.00;5024637;28;20046;-72
2023/06/01 11:29:08;;;;;;;14.25;6.57;;;;;;;25.40;46.07;96586.78;5021515;28;20119;-67